createdAt,value
2017-10-17T00:00:21.155Z,23.10
2017-10-17T00:03:23.849Z,13.70
2017-10-17T00:06:25.497Z,11.63
2017-10-17T00:09:27.146Z,15.70
2017-10-17T00:12:28.834Z,17.10
2017-10-17T00:15:30.586Z,17.83
2017-10-17T00:18:32.229Z,14.10
2017-10-17T00:21:33.809Z,21.40
2017-10-17T00:24:35.466Z,11.27
2017-10-17T00:27:38.062Z,18.70
2017-10-17T00:30:40.619Z,13.57
2017-10-17T00:33:42.306Z,11.30
2017-10-17T00:36:44.099Z,13.27
2017-10-17T00:39:46.733Z,18.20
2017-10-17T00:42:48.380Z,12.47
2017-10-17T00:45:49.929Z,17.97
2017-10-17T00:48:51.588Z,14.80
2017-10-17T00:51:53.881Z,15.07
2017-10-17T00:54:55.489Z,23.93
2017-10-17T00:57:58.445Z,14.83
2017-10-17T01:01:00.835Z,15.10
2017-10-17T01:04:03.230Z,19.03
2017-10-17T01:07:04.910Z,12.27
2017-10-17T01:10:06.575Z,10.87
2017-10-17T01:13:08.249Z,19.10
2017-10-17T01:16:09.985Z,12.00
2017-10-17T01:19:11.618Z,16.97
2017-10-17T01:22:14.023Z,24.90
2017-10-17T01:25:15.692Z,16.07
2017-10-17T01:28:17.328Z,15.67
2017-10-17T01:31:19.030Z,15.90
2017-10-17T01:34:25.712Z,12.53
2017-10-17T01:37:28.208Z,29.47
2017-10-17T01:40:33.324Z,10.53
2017-10-17T01:43:42.932Z,25.53
2017-10-17T01:46:46.372Z,13.33
2017-10-17T01:49:50.996Z,30.00
2017-10-17T01:52:59.989Z,16.83
2017-10-17T01:56:01.543Z,13.33
2017-10-17T01:59:03.142Z,15.33
2017-10-17T02:02:04.730Z,11.20
2017-10-17T02:05:06.381Z,17.00
2017-10-17T02:08:13.820Z,32.93
2017-10-17T02:11:18.300Z,15.20
2017-10-17T02:14:20.042Z,14.43
2017-10-17T02:17:25.533Z,19.73
2017-10-17T02:20:27.261Z,13.47
2017-10-17T02:23:28.990Z,18.87
2017-10-17T02:26:30.718Z,17.57
2017-10-17T02:29:51.141Z,13.93
2017-10-17T02:32:52.805Z,21.07
2017-10-17T02:35:55.161Z,13.33
2017-10-17T02:38:57.401Z,14.43
2017-10-17T02:41:59.006Z,12.80
2017-10-17T02:45:01.428Z,23.90
2017-10-17T02:48:07.749Z,18.27
2017-10-17T02:51:11.123Z,25.50
2017-10-17T02:54:13.648Z,16.20
2017-10-17T02:57:15.355Z,22.10
2017-10-17T03:00:17.772Z,24.73
2017-10-17T03:03:24.140Z,26.60
2017-10-17T03:06:25.924Z,16.53
2017-10-17T03:09:27.546Z,18.63
2017-10-17T03:12:29.106Z,14.03
2017-10-17T03:15:34.443Z,21.00
2017-10-17T03:18:36.799Z,26.20
2017-10-17T03:21:43.117Z,16.53
2017-10-17T03:25:10.527Z,15.37
2017-10-17T03:28:14.961Z,19.97
2017-10-17T03:31:18.177Z,16.63
2017-10-17T03:34:20.809Z,23.77
2017-10-17T03:37:34.171Z,15.27
2017-10-17T03:40:47.595Z,15.63
2017-10-17T03:43:53.471Z,20.17
2017-10-17T03:46:55.845Z,12.67
2017-10-17T03:50:01.987Z,22.77
2017-10-17T03:53:25.495Z,19.40
2017-10-17T03:56:27.166Z,23.80
2017-10-17T03:59:35.568Z,18.80
2017-10-17T04:02:37.161Z,15.97
2017-10-17T04:05:50.449Z,19.47
2017-10-17T04:09:07.870Z,19.50
2017-10-17T04:12:10.313Z,24.67
2017-10-17T04:15:11.951Z,21.70
2017-10-17T04:18:20.273Z,14.10
2017-10-17T04:21:41.585Z,23.37
2017-10-17T04:24:50.954Z,34.53
2017-10-17T04:31:53.413Z,17.37
2017-10-17T04:34:55.919Z,23.70
2017-10-17T04:37:58.264Z,19.60
2017-10-17T04:40:59.884Z,11.90
2017-10-17T04:44:20.483Z,22.33
2017-10-17T04:47:22.178Z,30.87
2017-10-17T04:54:46.689Z,42.23
2017-10-17T04:57:48.297Z,18.77
2017-10-17T05:00:50.730Z,21.00
2017-10-17T05:04:28.744Z,22.33
2017-10-17T05:07:47.776Z,22.40
2017-10-17T05:11:12.874Z,21.13
2017-10-17T05:18:04.474Z,27.33
2017-10-17T05:21:06.271Z,28.40
2017-10-17T05:28:14.051Z,32.97
2017-10-17T05:31:23.141Z,16.03
2017-10-17T05:34:25.675Z,31.73
2017-10-17T05:37:28.307Z,21.40
2017-10-17T05:40:29.982Z,17.80
2017-10-17T05:47:09.842Z,30.60
2017-10-17T05:53:51.729Z,24.03
2017-10-17T05:56:54.027Z,17.60
2017-10-17T05:59:55.672Z,24.77
2017-10-17T06:02:57.327Z,18.50
2017-10-17T06:06:00.022Z,29.63
2017-10-17T06:09:01.759Z,14.37
2017-10-17T06:12:04.087Z,20.20
2017-10-17T06:15:05.695Z,28.93
2017-10-17T06:18:10.396Z,18.70
2017-10-17T06:21:12.104Z,31.00
2017-10-17T06:24:13.700Z,34.73
2017-10-17T06:27:15.260Z,32.70
2017-10-17T06:30:16.909Z,15.13
2017-10-17T06:33:18.537Z,35.90
2017-10-17T06:36:20.141Z,20.43
2017-10-17T06:39:22.520Z,32.73
2017-10-17T06:42:24.210Z,22.60
2017-10-17T06:45:25.752Z,28.13
2017-10-17T06:48:27.500Z,26.43
2017-10-17T06:51:29.869Z,26.63
2017-10-17T06:54:32.311Z,15.70
2017-10-17T06:57:34.007Z,30.73
2017-10-17T07:00:36.345Z,30.63
2017-10-17T07:03:37.982Z,19.03
2017-10-17T07:06:39.578Z,20.00
2017-10-17T07:09:41.270Z,19.23
2017-10-17T07:12:42.889Z,21.70
2017-10-17T07:15:45.565Z,20.53
2017-10-17T07:18:47.233Z,19.30
2017-10-17T07:21:48.811Z,19.20
2017-10-17T07:24:51.155Z,29.33
2017-10-17T07:27:52.639Z,23.93
2017-10-17T07:30:54.920Z,29.97
2017-10-17T07:33:57.255Z,23.17
2017-10-17T07:36:59.282Z,28.13
2017-10-17T07:40:00.795Z,23.57
2017-10-17T07:43:02.433Z,36.20
2017-10-17T07:46:03.924Z,23.90
2017-10-17T07:49:05.330Z,34.83
2017-10-17T07:52:06.788Z,29.03
2017-10-17T07:55:08.204Z,26.03
2017-10-17T07:58:09.696Z,23.60
2017-10-17T08:01:11.166Z,25.93
2017-10-17T08:04:12.677Z,27.17
2017-10-17T08:07:14.257Z,29.33
2017-10-17T08:10:15.724Z,27.40
2017-10-17T08:13:17.142Z,21.70
2017-10-17T08:16:18.565Z,22.50
2017-10-17T08:19:19.917Z,22.80
2017-10-17T08:22:21.376Z,24.27
2017-10-17T08:25:22.721Z,23.80
2017-10-17T08:28:24.810Z,26.17
2017-10-17T08:31:26.241Z,30.17
2017-10-17T08:34:27.633Z,26.47
2017-10-17T08:37:29.024Z,33.13
2017-10-17T08:40:31.272Z,25.17
2017-10-17T08:43:32.664Z,41.60
2017-10-17T08:46:34.041Z,29.47
2017-10-17T08:49:35.476Z,26.60
2017-10-17T08:52:36.870Z,44.13
2017-10-17T08:55:38.278Z,30.83
2017-10-17T08:58:39.675Z,38.13
2017-10-17T09:01:41.112Z,39.10
2017-10-17T09:04:42.460Z,45.87
2017-10-17T09:07:43.862Z,49.23
2017-10-17T09:10:46.130Z,57.57
2017-10-17T09:13:48.293Z,52.43
2017-10-17T09:16:50.413Z,49.50
2017-10-17T09:19:51.784Z,57.63
2017-10-17T09:22:53.180Z,57.87
2017-10-17T09:25:55.269Z,42.83
2017-10-17T09:28:56.709Z,46.03
2017-10-17T09:31:58.096Z,45.70
2017-10-17T09:34:59.576Z,39.00
2017-10-17T09:38:00.958Z,70.40
2017-10-17T09:41:03.148Z,54.93
2017-10-17T09:44:04.556Z,48.20
2017-10-17T09:47:05.958Z,52.00
2017-10-17T09:50:07.387Z,47.60
2017-10-17T09:53:08.802Z,56.43
2017-10-17T09:56:10.257Z,62.43
2017-10-17T09:59:11.669Z,79.57
2017-10-17T10:02:13.132Z,65.60
2017-10-17T10:05:14.552Z,71.23
2017-10-17T10:08:16.646Z,60.77
2017-10-17T10:11:18.049Z,60.63
2017-10-17T10:14:19.462Z,59.23
2017-10-17T10:17:20.908Z,68.50
2017-10-17T10:20:22.268Z,58.10
2017-10-17T10:23:23.652Z,53.07
2017-10-17T10:26:25.100Z,73.70
2017-10-17T10:29:26.441Z,62.07
2017-10-17T10:32:27.820Z,60.70
2017-10-17T10:35:29.206Z,55.83
2017-10-17T10:38:30.575Z,49.23
2017-10-17T10:41:31.978Z,55.97
2017-10-17T10:44:34.173Z,54.47
2017-10-17T10:47:36.316Z,46.10
2017-10-17T10:50:38.449Z,49.50
2017-10-17T10:53:39.846Z,64.90
2017-10-17T10:56:41.957Z,53.23
2017-10-17T10:59:43.387Z,58.40
2017-10-17T11:02:44.781Z,57.90
2017-10-17T11:05:46.176Z,51.40
2017-10-17T11:08:47.582Z,60.33
2017-10-17T11:11:48.978Z,50.27
2017-10-17T11:14:51.150Z,60.57
2017-10-17T11:17:53.278Z,49.30
2017-10-17T11:20:54.689Z,58.97
2017-10-17T11:23:56.040Z,65.30
2017-10-17T11:26:57.417Z,49.80
2017-10-17T11:29:58.895Z,61.10
2017-10-17T11:33:00.233Z,57.40
2017-10-17T11:36:01.641Z,64.47
2017-10-17T11:39:03.086Z,56.70
2017-10-17T11:42:23.177Z,60.67
2017-10-17T11:45:24.571Z,60.40
2017-10-17T11:48:26.028Z,75.70
2017-10-17T11:51:27.431Z,64.33
2017-10-17T11:54:28.831Z,55.70
2017-10-17T11:57:30.307Z,64.40
2017-10-17T12:00:31.715Z,73.83
2017-10-17T12:03:33.085Z,73.43
2017-10-17T12:06:34.537Z,61.30
2017-10-17T12:09:35.919Z,55.90
2017-10-17T12:12:38.097Z,63.40
2017-10-17T12:15:40.278Z,60.00
2017-10-17T12:18:42.488Z,69.90
2017-10-17T12:21:43.915Z,68.30
2017-10-17T12:24:45.358Z,78.30
2017-10-17T12:27:46.767Z,71.97
2017-10-17T12:30:48.244Z,69.93
2017-10-17T12:33:57.542Z,76.20
2017-10-17T12:36:58.968Z,58.57
2017-10-17T12:40:00.460Z,66.30
2017-10-17T12:43:01.854Z,77.00
2017-10-17T12:46:03.316Z,58.87
2017-10-17T12:49:04.673Z,67.90
2017-10-17T12:52:06.086Z,74.43
2017-10-17T12:55:08.296Z,69.43
2017-10-17T12:58:09.660Z,66.97
2017-10-17T13:01:11.085Z,68.67
2017-10-17T13:04:12.450Z,66.07
2017-10-17T13:07:13.907Z,67.83
2017-10-17T13:10:15.336Z,73.03
2017-10-17T13:13:16.685Z,58.80
2017-10-17T13:16:19.835Z,74.43
2017-10-17T13:19:21.297Z,72.03
2017-10-17T13:22:23.136Z,78.30
2017-10-17T13:25:24.485Z,64.83
2017-10-17T13:28:26.032Z,74.77
2017-10-17T13:31:27.448Z,62.13
2017-10-17T13:34:28.985Z,63.40
2017-10-17T13:37:31.177Z,73.70
2017-10-17T13:40:32.701Z,65.60
2017-10-17T13:43:34.844Z,67.77
2017-10-17T13:46:36.167Z,73.40
2017-10-17T13:49:37.709Z,56.60
2017-10-17T13:52:39.081Z,60.40
2017-10-17T13:55:40.440Z,67.13
2017-10-17T13:58:41.872Z,60.53
2017-10-17T14:01:43.227Z,62.57
2017-10-17T14:04:44.688Z,59.10
2017-10-17T14:07:46.104Z,61.43
2017-10-17T14:10:47.608Z,60.97
2017-10-17T14:13:49.378Z,54.17
2017-10-17T14:16:50.823Z,59.90
2017-10-17T14:19:52.291Z,63.47
2017-10-17T14:22:53.683Z,55.23
2017-10-17T14:25:55.809Z,63.40
2017-10-17T14:28:57.376Z,63.40
2017-10-17T14:31:58.757Z,56.53
2017-10-17T14:35:00.147Z,64.33
2017-10-17T14:38:01.553Z,63.33
2017-10-17T14:41:03.867Z,52.93
2017-10-17T14:44:05.283Z,52.70
2017-10-17T14:47:07.542Z,55.90
2017-10-17T14:50:09.725Z,54.10
2017-10-17T14:53:11.156Z,59.07
2017-10-17T14:56:12.653Z,62.30
2017-10-17T14:59:14.056Z,52.63
2017-10-17T15:02:15.618Z,59.67
2017-10-17T15:05:17.831Z,57.43
2017-10-17T15:08:19.247Z,63.93
2017-10-17T15:11:20.664Z,53.93
2017-10-17T15:14:22.015Z,51.50
2017-10-17T15:17:23.417Z,59.47
2017-10-17T15:20:25.538Z,56.00
2017-10-17T15:23:26.946Z,39.37
2017-10-17T15:26:29.068Z,60.90
2017-10-17T15:29:31.202Z,43.67
2017-10-17T15:32:32.727Z,51.23
2017-10-17T15:35:35.328Z,47.27
2017-10-17T15:38:37.149Z,44.03
2017-10-17T15:41:38.540Z,40.10
2017-10-17T15:44:40.722Z,47.70
2017-10-17T15:47:42.091Z,45.13
2017-10-17T15:50:44.146Z,49.17
2017-10-17T15:53:45.557Z,49.43
2017-10-17T15:56:47.727Z,46.40
2017-10-17T15:59:50.761Z,50.83
2017-10-17T16:02:52.422Z,46.20
2017-10-17T16:05:53.843Z,45.60
2017-10-17T16:08:55.244Z,46.30
2017-10-17T16:11:56.957Z,46.47
2017-10-17T16:14:59.124Z,51.93
2017-10-17T16:18:00.576Z,54.57
2017-10-17T16:21:02.139Z,45.37
2017-10-17T16:24:04.755Z,47.10
2017-10-17T16:27:07.297Z,42.40
2017-10-17T16:30:09.434Z,53.20
2017-10-17T16:33:11.935Z,46.20
2017-10-17T16:36:14.360Z,53.27
2017-10-17T16:39:16.015Z,41.13
2017-10-17T16:42:17.951Z,50.23
2017-10-17T16:45:19.763Z,46.60
2017-10-17T16:48:21.949Z,49.67
2017-10-17T16:51:23.853Z,46.27
2017-10-17T16:54:25.365Z,45.30
2017-10-17T16:57:27.569Z,51.07
2017-10-17T17:00:30.188Z,52.10
2017-10-17T17:03:33.280Z,52.50
2017-10-17T17:06:34.635Z,62.70
2017-10-17T17:09:36.497Z,66.23
2017-10-17T17:12:38.957Z,49.37
2017-10-17T17:15:41.583Z,49.70
2017-10-17T17:18:45.067Z,43.37
2017-10-17T17:21:47.661Z,42.30
2017-10-17T17:24:49.082Z,48.03
2017-10-17T17:27:50.476Z,54.03
2017-10-17T17:30:52.300Z,61.57
2017-10-17T17:33:54.386Z,64.30
2017-10-17T17:36:55.888Z,46.93
2017-10-17T17:39:57.498Z,50.57
2017-10-17T17:42:58.976Z,45.63
2017-10-17T17:46:00.739Z,50.87
2017-10-17T17:49:02.441Z,58.23
2017-10-17T17:52:04.012Z,59.40
2017-10-17T17:55:05.417Z,58.17
2017-10-17T17:58:06.863Z,48.57
2017-10-17T18:01:08.280Z,52.77
2017-10-17T18:04:09.749Z,53.03
2017-10-17T18:07:11.260Z,53.87
2017-10-17T18:10:13.408Z,42.73
2017-10-17T18:13:14.912Z,45.47
2017-10-17T18:16:17.706Z,46.10
2017-10-17T18:19:19.248Z,55.20
2017-10-17T18:22:20.841Z,54.63
2017-10-17T18:25:23.416Z,53.87
2017-10-17T18:28:24.895Z,50.20
2017-10-17T18:31:26.353Z,46.93
2017-10-17T18:34:27.795Z,60.10
2017-10-17T18:37:29.559Z,58.37
2017-10-17T18:40:31.047Z,61.90
2017-10-17T18:43:32.633Z,53.53
2017-10-17T18:46:34.016Z,55.60
2017-10-17T18:49:35.598Z,63.37
2017-10-17T18:52:37.938Z,50.63
2017-10-17T18:55:39.912Z,61.17
2017-10-17T18:58:41.326Z,55.33
2017-10-17T19:01:42.916Z,61.03
2017-10-17T19:04:46.414Z,62.70
2017-10-17T19:07:48.786Z,47.30
2017-10-17T19:10:50.271Z,65.97
2017-10-17T19:13:51.661Z,65.70
2017-10-17T19:16:53.209Z,59.73
2017-10-17T19:19:54.627Z,53.03
2017-10-17T19:22:56.083Z,51.13
2017-10-17T19:25:57.469Z,46.87
2017-10-17T19:28:58.947Z,53.93
2017-10-17T19:32:00.357Z,48.93
2017-10-17T19:35:01.767Z,51.20
2017-10-17T19:38:03.264Z,45.03
2017-10-17T19:41:04.711Z,57.33
2017-10-17T19:44:06.210Z,52.03
2017-10-17T19:47:07.657Z,43.13
2017-10-17T19:50:09.096Z,52.13
2017-10-17T19:53:10.496Z,59.00
2017-10-17T19:56:11.885Z,57.33
2017-10-17T19:59:14.021Z,58.63
2017-10-17T20:02:15.551Z,44.27
2017-10-17T20:05:17.126Z,60.20
2017-10-17T20:08:18.518Z,53.37
2017-10-17T20:11:21.641Z,64.30
2017-10-17T20:14:23.119Z,59.83
2017-10-17T20:17:24.736Z,58.73
2017-10-17T20:20:26.212Z,67.90
2017-10-17T20:23:27.829Z,51.93
2017-10-17T20:26:29.892Z,55.57
2017-10-17T20:29:31.393Z,61.93
2017-10-17T20:32:32.761Z,64.43
2017-10-17T20:35:35.686Z,63.87
2017-10-17T20:38:37.127Z,74.13
2017-10-17T20:41:38.484Z,57.10
2017-10-17T20:44:41.368Z,52.67
2017-10-17T20:47:42.766Z,49.87
2017-10-17T20:50:44.718Z,51.10
2017-10-17T20:53:46.066Z,53.60
2017-10-17T20:56:48.159Z,47.83
2017-10-17T20:59:49.595Z,61.13
2017-10-17T21:02:52.456Z,54.10
2017-10-17T21:05:54.990Z,49.83
2017-10-17T21:08:56.712Z,54.47
2017-10-17T21:11:58.875Z,43.63
2017-10-17T21:15:01.445Z,42.20
2017-10-17T21:18:04.247Z,47.47
2017-10-17T21:21:05.652Z,44.23
2017-10-17T21:24:07.361Z,44.30
2017-10-17T21:27:10.047Z,49.00
2017-10-17T21:30:12.081Z,59.03
2017-10-17T21:33:16.266Z,47.27
2017-10-17T21:36:18.692Z,48.30
2017-10-17T21:39:21.094Z,39.33
2017-10-17T21:42:25.327Z,41.97
2017-10-17T21:45:28.035Z,43.23
2017-10-17T21:48:30.895Z,51.43
2017-10-17T21:51:32.892Z,40.67
2017-10-17T21:54:34.495Z,51.30
2017-10-17T21:57:36.007Z,52.70
2017-10-17T22:00:55.811Z,43.73
2017-10-17T22:03:57.998Z,47.93
2017-10-17T22:06:59.871Z,48.97
2017-10-17T22:10:01.437Z,34.93
2017-10-17T22:13:02.894Z,41.87
2017-10-17T22:16:04.375Z,45.47
2017-10-17T22:19:05.862Z,41.20
2017-10-17T22:22:07.832Z,52.13
2017-10-17T22:25:09.999Z,40.67
2017-10-17T22:28:11.439Z,35.33
2017-10-17T22:31:13.641Z,42.73
2017-10-17T22:34:15.153Z,34.63
2017-10-17T22:40:25.539Z,40.57
2017-10-17T22:43:27.008Z,44.00
2017-10-17T22:46:29.247Z,35.10
2017-10-17T22:49:30.771Z,38.77
2017-10-17T22:52:32.240Z,41.37
2017-10-17T22:55:33.743Z,32.63
2017-10-17T22:58:35.177Z,44.07
2017-10-17T23:01:36.638Z,38.47
2017-10-17T23:04:38.809Z,33.40
2017-10-17T23:07:40.972Z,37.67
2017-10-17T23:10:43.153Z,42.73
2017-10-17T23:13:45.339Z,42.07
2017-10-17T23:17:05.231Z,31.50
2017-10-17T23:23:53.283Z,49.50
2017-10-17T23:26:54.763Z,25.33
2017-10-17T23:29:56.505Z,38.87
2017-10-17T23:32:57.980Z,32.20
2017-10-17T23:35:59.403Z,38.73
2017-10-17T23:39:00.843Z,39.03
2017-10-17T23:42:02.355Z,34.73
2017-10-17T23:45:03.831Z,32.10
2017-10-17T23:48:06.054Z,25.80
2017-10-17T23:51:07.468Z,30.10
2017-10-17T23:54:09.668Z,29.90
2017-10-17T23:57:11.119Z,35.33
